Time;durP1;ratioP1;P1;durP2;ratioP2;P2;SDS_P1;SDS_P2;PMS_P1;PMS_P2;Temp;Humidity;BMP_temperature;BMP_pressure;BME280_temperature;BME280_humidity;BME280_pressure;Samples;Min_cycle;Max_cycle;Signal;HPM_P1;HPM_P2
2024/01/05 00:01:56;;;;;;;13.23;12.13;;;;;;;5.73;100.00;92461.44;5067199;28;20232;-72
2024/01/05 00:04:22;;;;;;;11.90;11.10;;;;;;;5.77;100.00;92462.50;5069751;28;20173;-72
2024/01/05 00:06:49;;;;;;;12.93;11.80;;;;;;;5.80;100.00;92454.22;5062027;28;20267;-72
2024/01/05 00:09:14;;;;;;;15.43;14.17;;;;;;;5.67;100.00;92461.66;5072256;28;20244;-72
2024/01/05 00:11:40;;;;;;;25.17;18.50;;;;;;;5.58;100.00;92463.97;5068444;28;20185;-72
2024/01/05 00:14:05;;;;;;;14.40;13.13;;;;;;;5.44;100.00;92452.50;5046248;28;20194;-72
2024/01/05 00:16:30;;;;;;;12.90;11.90;;;;;;;5.49;100.00;92455.13;5048734;28;20222;-72
2024/01/05 00:18:56;;;;;;;13.97;12.63;;;;;;;5.60;100.00;92453.34;5056312;28;20184;-72
2024/01/05 00:21:25;;;;;;;36.37;23.60;;;;;;;5.78;100.00;92471.03;5058397;28;20222;-72
2024/01/05 00:23:52;;;;;;;15.40;14.07;;;;;;;5.75;100.00;92474.13;5049481;28;20214;-71
2024/01/05 00:26:18;;;;;;;12.77;11.77;;;;;;;6.22;100.00;92460.09;5051056;28;20185;-72
2024/01/05 00:28:45;;;;;;;17.87;16.10;;;;;;;6.31;99.83;92468.94;5066020;28;20229;-71
2024/01/05 00:31:11;;;;;;;16.67;14.73;;;;;;;5.94;100.00;92463.13;5070801;28;20170;-71
2024/01/05 00:33:38;;;;;;;14.03;12.77;;;;;;;5.95;100.00;92472.44;5070698;28;20308;-71
2024/01/05 00:36:07;;;;;;;14.30;13.00;;;;;;;6.11;100.00;92471.47;5064589;28;20268;-71
2024/01/05 00:38:33;;;;;;;15.23;13.97;;;;;;;6.15;100.00;92477.69;5070088;28;20277;-71
2024/01/05 00:40:58;;;;;;;12.43;11.37;;;;;;;6.08;100.00;92468.59;5067872;28;20197;-71
2024/01/05 00:43:24;;;;;;;15.97;14.37;;;;;;;6.23;100.00;92484.97;5068850;28;20213;-71
2024/01/05 00:45:49;;;;;;;18.93;15.77;;;;;;;6.40;100.00;92487.34;5070649;28;20189;-71
2024/01/05 00:48:14;;;;;;;24.57;19.17;;;;;;;6.37;99.51;92480.88;5070199;28;20205;-72
2024/01/05 00:50:40;;;;;;;12.43;11.43;;;;;;;6.17;100.00;92487.81;5059218;28;20228;-71
2024/01/05 00:53:05;;;;;;;13.83;12.80;;;;;;;6.32;100.00;92493.00;5068407;28;20209;-71
2024/01/05 00:55:31;;;;;;;12.77;11.73;;;;;;;6.47;99.13;92482.72;5055235;28;20218;-71
2024/01/05 00:57:56;;;;;;;14.17;12.93;;;;;;;6.28;99.71;92486.81;5060154;28;20224;-72
2024/01/05 01:00:21;;;;;;;15.27;13.77;;;;;;;6.14;100.00;92503.84;5062592;28;20215;-72
2024/01/05 01:02:47;;;;;;;14.03;12.83;;;;;;;6.09;100.00;92496.06;5065720;28;20236;-70
2024/01/05 01:05:12;;;;;;;13.73;12.53;;;;;;;6.15;100.00;92500.22;5058912;28;20518;-71
2024/01/05 01:07:39;;;;;;;12.73;11.80;;;;;;;6.20;100.00;92492.47;5058604;28;20214;-72
2024/01/05 01:10:05;;;;;;;13.13;12.13;;;;;;;6.16;100.00;92488.84;5060172;28;20212;-71
2024/01/05 01:12:30;;;;;;;13.30;12.20;;;;;;;6.01;100.00;92462.84;5067243;28;20221;-71
2024/01/05 01:14:56;;;;;;;10.30;9.77;;;;;;;6.25;97.49;92479.53;5068576;28;20228;-71
2024/01/05 01:17:22;;;;;;;10.50;9.90;;;;;;;6.66;91.98;92490.78;5056624;28;20218;-71
2024/01/05 01:19:48;;;;;;;8.63;8.23;;;;;;;7.11;86.44;92489.00;5064186;28;20200;-71
2024/01/05 01:22:13;;;;;;;9.17;8.57;;;;;;;7.75;83.16;92489.94;5069694;28;20225;-71
2024/01/05 01:24:39;;;;;;;8.67;8.30;;;;;;;8.06;80.16;92499.19;5062808;28;20208;-71
2024/01/05 01:27:04;;;;;;;9.00;8.50;;;;;;;8.17;79.53;92503.31;5068477;28;20221;-71
2024/01/05 01:29:29;;;;;;;11.53;10.57;;;;;;;7.53;88.02;92509.47;5071112;28;20324;-71
2024/01/05 01:31:54;;;;;;;11.77;10.97;;;;;;;7.05;92.44;92499.63;5060173;28;20222;-71
2024/01/05 01:34:20;;;;;;;12.13;11.33;;;;;;;7.23;92.92;92502.50;5051043;28;20182;-71
2024/01/05 01:36:45;;;;;;;11.80;10.77;;;;;;;6.57;96.06;92498.28;5061423;28;20290;-71
2024/01/05 01:39:11;;;;;;;13.90;12.57;;;;;;;6.66;95.62;92475.22;5070750;28;20194;-72
2024/01/05 01:41:37;;;;;;;11.67;10.63;;;;;;;6.11;100.00;92494.00;5070108;28;20814;-71
2024/01/05 01:44:02;;;;;;;16.80;12.30;;;;;;;6.20;99.58;92497.66;5070107;28;20200;-71
2024/01/05 01:46:29;;;;;;;12.33;11.37;;;;;;;6.32;98.64;92506.78;5061079;28;20192;-71
2024/01/05 01:48:55;;;;;;;13.17;12.13;;;;;;;6.04;99.77;92520.13;5070694;28;20185;-71
2024/01/05 01:51:21;;;;;;;11.23;10.53;;;;;;;5.93;100.00;92512.59;5069556;28;20177;-71
2024/01/05 01:53:47;;;;;;;12.53;11.53;;;;;;;5.77;100.00;92508.31;5069420;28;20249;-71
2024/01/05 01:56:13;;;;;;;12.27;11.27;;;;;;;5.73;100.00;92504.66;5065803;28;20213;-71
2024/01/05 01:58:42;;;;;;;11.93;11.07;;;;;;;5.88;100.00;92517.75;5083310;28;20225;-71
2024/01/05 02:01:08;;;;;;;14.87;13.47;;;;;;;5.90;99.58;92519.03;5068776;28;20276;-71
2024/01/05 02:03:34;;;;;;;12.57;11.47;;;;;;;5.82;99.95;92521.34;5051611;28;20222;-71
2024/01/05 02:06:00;;;;;;;13.37;12.07;;;;;;;5.81;99.81;92524.91;5048452;28;20177;-72
2024/01/05 02:08:27;;;;;;;11.27;10.47;;;;;;;5.59;100.00;92529.44;5045849;28;20296;-71
2024/01/05 02:10:52;;;;;;;12.60;11.07;;;;;;;5.73;100.00;92527.97;5036473;28;20194;-72
2024/01/05 02:13:18;;;;;;;12.07;11.27;;;;;;;5.95;99.21;92528.66;5038262;28;20225;-72
2024/01/05 02:15:43;;;;;;;12.03;11.10;;;;;;;5.92;97.73;92536.91;5047945;28;20266;-71
2024/01/05 02:18:14;;;;;;;10.60;9.80;;;;;;;6.62;94.06;92539.78;5067527;28;20221;-71
2024/01/05 02:20:44;;;;;;;9.00;8.50;;;;;;;7.09;89.26;92522.22;5063459;28;20221;-71
2024/01/05 02:23:22;;;;;;;10.00;9.60;;;;;;;7.02;90.61;92532.06;5068671;28;20925;-72
2024/01/05 02:25:48;;;;;;;10.07;9.67;;;;;;;7.70;84.41;92534.13;5062344;28;20197;-71
2024/01/05 02:28:13;;;;;;;9.50;8.83;;;;;;;7.93;83.02;92538.75;5069441;28;20221;-71
2024/01/05 02:30:38;;;;;;;8.47;8.07;;;;;;;8.07;84.66;92533.78;5067266;28;20193;-71
2024/01/05 02:33:04;;;;;;;8.60;8.10;;;;;;;8.29;80.26;92542.06;5060954;28;20212;-71
2024/01/05 02:35:29;;;;;;;9.43;8.93;;;;;;;8.15;81.84;92522.84;5062760;28;20225;-71
2024/01/05 02:37:54;;;;;;;8.20;7.70;;;;;;;8.33;79.41;92542.31;5069001;28;20237;-72
2024/01/05 02:40:20;;;;;;;9.63;9.13;;;;;;;8.44;78.88;92549.00;5063025;28;20189;-71
2024/01/05 02:42:45;;;;;;;9.53;8.83;;;;;;;8.37;79.19;92556.34;5055949;28;20214;-72
2024/01/05 02:45:10;;;;;;;10.77;10.00;;;;;;;7.99;82.38;92544.72;5063786;28;20192;-71
2024/01/05 02:47:36;;;;;;;10.30;9.70;;;;;;;7.90;83.67;92541.91;5055153;28;20218;-71
2024/01/05 02:50:02;;;;;;;11.10;10.43;;;;;;;7.74;85.29;92542.94;5069030;28;20192;-71
2024/01/05 02:52:27;;;;;;;9.60;9.10;;;;;;;7.59;83.33;92537.78;5068729;28;20229;-71
2024/01/05 02:54:53;;;;;;;9.47;8.60;;;;;;;7.69;82.54;92548.16;5058959;28;20232;-70
2024/01/05 02:57:18;;;;;;;10.13;9.63;;;;;;;7.88;82.30;92554.38;5058901;28;20281;-71
2024/01/05 02:59:43;;;;;;;8.80;8.50;;;;;;;8.18;78.50;92562.09;5061553;28;20173;-71
2024/01/05 03:02:09;;;;;;;9.37;8.87;;;;;;;8.40;78.61;92559.19;5055664;28;20293;-72
2024/01/05 03:04:34;;;;;;;9.13;8.73;;;;;;;8.36;78.72;92560.75;5063798;28;20174;-72
2024/01/05 03:06:59;;;;;;;9.83;9.33;;;;;;;8.35;79.92;92566.22;5056426;28;20234;-71
2024/01/05 03:09:25;;;;;;;11.07;10.10;;;;;;;8.11;80.81;92560.78;5079112;28;20189;-71
2024/01/05 03:11:50;;;;;;;11.40;10.63;;;;;;;7.89;81.80;92568.91;5061252;28;20250;-72
2024/01/05 03:14:15;;;;;;;11.17;10.57;;;;;;;7.51;83.57;92555.72;5042584;28;20183;-72
2024/01/05 03:16:41;;;;;;;11.07;10.17;;;;;;;7.32;85.49;92565.03;5033230;28;20209;-70
2024/01/05 03:19:06;;;;;;;12.87;12.07;;;;;;;7.23;86.63;92575.19;5042032;28;20186;-71
2024/01/05 03:21:31;;;;;;;11.27;10.57;;;;;;;7.09;87.72;92574.13;5046287;28;20225;-71
2024/01/05 03:23:57;;;;;;;12.00;11.23;;;;;;;6.98;88.64;92579.56;5074928;28;20205;-71
2024/01/05 03:26:22;;;;;;;12.20;10.97;;;;;;;6.78;89.66;92575.09;5073512;28;20190;-71
2024/01/05 03:28:47;;;;;;;12.73;11.63;;;;;;;6.89;89.65;92587.06;5049657;28;20229;-71
2024/01/05 03:31:13;;;;;;;11.57;10.50;;;;;;;6.69;90.43;92581.84;5045077;28;20213;-71
2024/01/05 03:33:40;;;;;;;11.00;10.37;;;;;;;6.62;90.37;92586.47;5048873;28;20263;-71
2024/01/05 03:36:05;;;;;;;12.13;11.33;;;;;;;6.53;90.96;92606.16;5047383;28;20213;-71
2024/01/05 03:38:31;;;;;;;11.70;11.03;;;;;;;6.60;91.02;92596.31;5042832;28;20254;-71
2024/01/05 03:40:56;;;;;;;10.77;9.77;;;;;;;6.37;92.00;92602.72;5046131;28;20204;-71
2024/01/05 03:43:22;;;;;;;11.30;10.60;;;;;;;6.20;92.36;92591.75;5049251;28;20218;-71
2024/01/05 03:45:47;;;;;;;11.83;11.03;;;;;;;6.36;92.65;92603.75;5042256;28;20193;-72
2024/01/05 03:48:14;;;;;;;10.90;9.87;;;;;;;6.40;92.49;92607.38;5063787;28;20221;-71
2024/01/05 03:50:39;;;;;;;10.63;10.03;;;;;;;6.38;92.62;92603.50;5063034;28;20190;-71
2024/01/05 03:53:05;;;;;;;10.97;10.17;;;;;;;6.21;93.41;92614.03;5054272;28;20218;-71
2024/01/05 03:55:30;;;;;;;12.23;11.33;;;;;;;6.12;93.18;92610.38;5047475;28;20277;-71
2024/01/05 03:57:56;;;;;;;12.00;11.07;;;;;;;6.15;93.75;92611.66;5040662;28;20225;-71
2024/01/05 04:00:21;;;;;;;12.03;10.83;;;;;;;6.30;93.38;92616.94;5045597;28;20190;-71
2024/01/05 04:02:46;;;;;;;12.73;11.90;;;;;;;6.48;92.38;92619.09;5050573;28;20283;-71
2024/01/05 04:05:12;;;;;;;11.40;10.70;;;;;;;6.46;92.48;92613.38;5046299;28;20253;-71
2024/01/05 04:07:38;;;;;;;11.73;10.97;;;;;;;6.20;92.74;92580.59;5051876;28;20240;-71
2024/01/05 04:10:05;;;;;;;11.73;10.83;;;;;;;6.08;92.53;92575.63;5062066;28;20276;-71
2024/01/05 04:12:30;;;;;;;11.50;10.63;;;;;;;6.34;92.51;92628.34;5071209;28;21164;-71
2024/01/05 04:14:56;;;;;;;11.27;10.43;;;;;;;6.41;91.82;92628.94;5071996;28;20208;-71
2024/01/05 04:17:21;;;;;;;11.80;10.83;;;;;;;6.26;92.65;92621.06;5060377;28;20237;-70
2024/01/05 04:19:47;;;;;;;10.33;9.83;;;;;;;6.18;93.01;92624.13;5069745;28;20185;-71
2024/01/05 04:22:12;;;;;;;9.80;9.20;;;;;;;6.40;91.97;92632.53;5065152;28;20233;-71
2024/01/05 04:24:38;;;;;;;11.37;10.57;;;;;;;6.25;92.92;92616.91;5064178;28;20190;-71
2024/01/05 04:27:03;;;;;;;11.70;10.83;;;;;;;6.28;92.94;92619.00;5051745;28;20245;-71
2024/01/05 04:29:28;;;;;;;11.03;10.40;;;;;;;6.25;92.64;92614.31;5065721;28;20197;-71
2024/01/05 04:31:54;;;;;;;10.43;9.53;;;;;;;6.20;93.01;92622.06;5055054;28;20237;-71
2024/01/05 04:34:19;;;;;;;11.13;10.33;;;;;;;6.25;92.37;92632.47;5051544;28;20189;-71
2024/01/05 04:36:45;;;;;;;10.57;9.73;;;;;;;6.27;91.98;92630.41;5055276;28;20220;-71
2024/01/05 04:39:10;;;;;;;10.43;9.70;;;;;;;6.28;92.02;92639.72;5057090;28;20190;-71
2024/01/05 04:41:36;;;;;;;11.60;10.67;;;;;;;5.96;91.89;92644.97;5052475;28;20193;-71
2024/01/05 04:44:03;;;;;;;12.00;10.93;;;;;;;6.29;90.91;92649.06;5041924;28;20830;-72
2024/01/05 04:46:29;;;;;;;11.53;10.87;;;;;;;6.19;91.41;92643.84;5040489;28;20195;-72
2024/01/05 04:48:54;;;;;;;12.10;11.33;;;;;;;5.91;91.04;92649.34;5039599;28;20174;-71
2024/01/05 04:51:20;;;;;;;11.47;10.77;;;;;;;5.89;92.08;92651.41;5050195;28;20178;-71
2024/01/05 04:53:46;;;;;;;12.83;11.83;;;;;;;5.72;93.14;92663.69;5047139;28;20217;-71
2024/01/05 04:56:12;;;;;;;12.07;10.87;;;;;;;5.66;93.95;92652.53;5044238;28;20278;-72
2024/01/05 04:58:37;;;;;;;11.50;10.70;;;;;;;5.62;94.21;92663.63;5064575;28;20292;-71
2024/01/05 05:01:02;;;;;;;13.00;11.47;;;;;;;5.52;94.59;92668.69;5064202;28;20221;-76
2024/01/05 05:03:30;;;;;;;13.23;12.33;;;;;;;5.33;95.92;92657.13;5064171;28;20256;-73
2024/01/05 05:05:55;;;;;;;13.90;12.00;;;;;;;5.43;96.24;92670.94;5059465;28;20181;-73
2024/01/05 05:08:21;;;;;;;12.93;11.83;;;;;;;5.35;96.77;92661.06;5057588;28;20225;-81
2024/01/05 05:10:47;;;;;;;13.27;12.30;;;;;;;5.29;96.82;92674.19;5069105;28;20371;-78
2024/01/05 05:13:12;;;;;;;13.93;12.50;;;;;;;5.14;96.58;92672.22;5064528;28;20237;-78
2024/01/05 05:15:38;;;;;;;14.17;12.97;;;;;;;5.18;96.59;92682.88;5069871;28;20209;-75
2024/01/05 05:18:03;;;;;;;15.30;13.83;;;;;;;4.97;97.53;92694.81;5064916;28;20240;-77
2024/01/05 05:20:29;;;;;;;13.87;12.57;;;;;;;5.06;96.91;92695.19;5065442;28;20224;-73
2024/01/05 05:22:54;;;;;;;15.30;13.90;;;;;;;5.03;97.61;92698.25;5069096;28;20696;-74
2024/01/05 05:25:19;;;;;;;14.83;12.97;;;;;;;4.88;97.93;92697.06;5068677;28;20193;-73
2024/01/05 05:27:45;;;;;;;15.23;13.70;;;;;;;4.70;98.93;92684.41;5068076;28;20213;-75
2024/01/05 05:30:10;;;;;;;14.93;13.57;;;;;;;5.05;100.00;92707.31;5075567;28;20207;-71
2024/01/05 05:32:36;;;;;;;13.10;12.10;;;;;;;4.99;99.89;92703.13;5057829;28;20248;-72
2024/01/05 05:35:01;;;;;;;12.20;11.27;;;;;;;4.98;99.88;92704.13;5061918;28;20245;-72
2024/01/05 05:37:27;;;;;;;13.47;12.40;;;;;;;5.03;99.75;92699.00;5064059;28;20240;-72
2024/01/05 05:39:52;;;;;;;14.20;12.73;;;;;;;4.91;100.00;92695.78;5066484;28;20181;-72
2024/01/05 05:42:17;;;;;;;14.03;12.87;;;;;;;5.01;100.00;92700.28;5058289;28;20222;-71
2024/01/05 05:44:43;;;;;;;13.57;12.40;;;;;;;4.77;99.90;92710.91;5049418;28;20197;-75
2024/01/05 05:47:09;;;;;;;13.67;12.60;;;;;;;4.83;99.12;92702.16;5046977;28;20222;-71
2024/01/05 05:49:34;;;;;;;14.47;13.27;;;;;;;4.96;99.02;92711.38;5044735;28;20194;-71
2024/01/05 05:52:00;;;;;;;14.93;13.60;;;;;;;4.93;98.77;92717.78;5040436;28;20233;-71
2024/01/05 05:54:25;;;;;;;14.83;13.37;;;;;;;4.76;99.00;92717.06;5046108;28;20182;-71
2024/01/05 05:56:51;;;;;;;16.80;14.90;;;;;;;4.78;99.81;92725.38;5052787;28;20315;-74
2024/01/05 05:59:16;;;;;;;14.70;13.23;;;;;;;4.69;100.00;92713.09;5064960;28;20212;-76
2024/01/05 06:01:42;;;;;;;15.90;13.70;;;;;;;4.70;100.00;92722.44;5057662;28;20185;-78
2024/01/05 06:04:08;;;;;;;14.30;13.20;;;;;;;4.95;100.00;92715.75;5065310;28;20189;-75
2024/01/05 06:06:33;;;;;;;13.73;12.77;;;;;;;4.64;100.00;92725.97;5065843;28;20197;-73
2024/01/05 06:08:59;;;;;;;13.20;12.20;;;;;;;4.95;100.00;92717.53;5066153;28;20194;-72
2024/01/05 06:11:26;;;;;;;14.03;12.93;;;;;;;4.97;100.00;92711.13;5066955;28;20924;-73
2024/01/05 06:13:52;;;;;;;14.87;13.57;;;;;;;4.96;99.70;92727.66;5062186;28;20718;-73
2024/01/05 06:16:17;;;;;;;13.57;12.33;;;;;;;4.90;100.00;92727.84;5064448;28;20226;-72
2024/01/05 06:18:43;;;;;;;15.40;13.93;;;;;;;5.03;99.12;92734.47;5067646;28;20213;-73
2024/01/05 06:21:08;;;;;;;14.80;13.40;;;;;;;4.98;100.00;92741.13;5064890;28;20853;-73
2024/01/05 06:23:34;;;;;;;15.43;14.07;;;;;;;4.93;99.67;92714.44;5059284;28;20218;-72
2024/01/05 06:25:59;;;;;;;12.93;11.83;;;;;;;4.89;99.87;92732.25;5063405;28;20183;-72
2024/01/05 06:28:25;;;;;;;14.60;13.30;;;;;;;4.96;100.00;92750.16;5062132;28;20240;-72
2024/01/05 06:30:50;;;;;;;14.57;13.20;;;;;;;5.00;99.56;92743.47;5064098;28;20232;-72
2024/01/05 06:33:15;;;;;;;12.27;11.23;;;;;;;4.87;99.93;92728.34;5067145;28;20296;-72
2024/01/05 06:35:41;;;;;;;13.20;11.97;;;;;;;5.04;99.95;92743.78;5065002;28;20220;-72
2024/01/05 06:38:06;;;;;;;12.00;11.13;;;;;;;4.68;100.00;92750.34;5067002;28;20221;-72
2024/01/05 06:40:32;;;;;;;11.60;10.93;;;;;;;4.68;100.00;92696.81;5065136;28;20207;-72
2024/01/05 06:42:57;;;;;;;11.83;10.80;;;;;;;5.22;100.00;92746.84;5063741;28;20216;-72
2024/01/05 06:45:26;;;;;;;12.07;11.17;;;;;;;5.50;98.85;92740.66;5065712;28;20235;-72
2024/01/05 06:47:51;;;;;;;12.60;11.40;;;;;;;5.14;99.10;92754.25;5059745;28;20225;-72
2024/01/05 06:50:17;;;;;;;12.20;11.27;;;;;;;5.36;99.27;92755.78;5062127;28;20268;-72
2024/01/05 06:52:42;;;;;;;14.03;12.93;;;;;;;5.48;98.69;92745.31;5061901;28;20229;-72
2024/01/05 06:55:08;;;;;;;17.77;13.60;;;;;;;5.69;97.23;92731.50;5065517;28;20219;-72
2024/01/05 06:57:35;;;;;;;15.13;13.27;;;;;;;5.41;97.62;92729.19;5071515;28;20230;-72
2024/01/05 07:00:10;;;;;;;15.87;13.77;;;;;;;5.85;96.82;92736.59;5061973;28;20637;-72
2024/01/05 07:02:36;;;;;;;24.53;15.80;;;;;;;5.69;97.80;92754.81;5064920;28;20229;-73
2024/01/05 07:05:03;;;;;;;74.33;28.80;;;;;;;5.74;97.95;92745.31;5059921;28;20201;-72
2024/01/05 07:07:28;;;;;;;36.90;20.33;;;;;;;5.58;98.44;92745.41;5067509;28;20219;-73
2024/01/05 07:09:54;;;;;;;51.37;21.03;;;;;;;5.67;98.44;92746.50;5066653;28;20198;-73
2024/01/05 07:12:19;;;;;;;38.03;19.13;;;;;;;5.79;97.41;92745.34;5063485;28;20231;-74
2024/01/05 07:14:46;;;;;;;30.37;15.53;;;;;;;5.95;97.30;92730.72;5066108;28;20201;-72
2024/01/05 07:17:12;;;;;;;28.13;17.40;;;;;;;6.06;96.59;92740.16;5066250;28;20224;-73
2024/01/05 07:19:38;;;;;;;27.63;17.03;;;;;;;5.93;97.52;92738.00;5056227;28;20213;-72
2024/01/05 07:22:04;;;;;;;22.60;15.17;;;;;;;6.13;96.75;92713.00;5063996;28;20832;-72
2024/01/05 07:24:29;;;;;;;47.27;20.67;;;;;;;6.06;96.85;92740.16;5065041;28;20185;-73
2024/01/05 07:26:54;;;;;;;45.83;22.33;;;;;;;6.35;96.04;92726.63;5063167;28;20228;-72
2024/01/05 07:29:19;;;;;;;25.70;16.90;;;;;;;6.39;95.32;92742.47;5066943;28;20718;-72
2024/01/05 07:31:45;;;;;;;17.00;14.73;;;;;;;6.38;95.01;92727.94;5068073;28;20236;-72
2024/01/05 07:34:10;;;;;;;19.97;14.63;;;;;;;6.65;94.86;92735.59;5064777;28;20189;-72
2024/01/05 07:36:41;;;;;;;16.03;14.20;;;;;;;6.47;95.23;92752.38;5067793;28;20240;-73
2024/01/05 07:39:06;;;;;;;13.10;11.77;;;;;;;6.61;95.25;92740.53;5064205;28;21211;-73
2024/01/05 07:41:32;;;;;;;12.97;11.67;;;;;;;6.70;95.19;92746.81;5068354;28;20205;-72
2024/01/05 07:43:57;;;;;;;12.60;11.50;;;;;;;6.91;93.55;92750.28;5059445;28;20192;-72
2024/01/05 07:46:27;;;;;;;17.53;12.60;;;;;;;7.12;93.10;92744.16;5064079;28;20190;-72
2024/01/05 07:48:52;;;;;;;12.63;11.60;;;;;;;7.04;92.98;92737.63;5042774;28;20215;-73
2024/01/05 07:51:20;;;;;;;16.70;12.47;;;;;;;7.39;91.29;92761.13;5047081;28;20190;-72
2024/01/05 07:53:48;;;;;;;17.23;14.93;;;;;;;7.55;89.93;92761.94;5037184;28;20218;-73
2024/01/05 07:56:14;;;;;;;12.57;11.67;;;;;;;7.54;89.28;92755.19;5046794;28;20218;-72
2024/01/05 07:58:39;;;;;;;12.13;11.00;;;;;;;7.59;88.35;92758.59;5040915;28;20220;-74
2024/01/05 08:01:05;;;;;;;12.33;11.23;;;;;;;7.56;88.26;92761.72;5043797;28;20197;-74
2024/01/05 08:03:30;;;;;;;10.97;10.37;;;;;;;7.63;86.60;92762.22;5044125;28;20214;-74
2024/01/05 08:05:56;;;;;;;11.17;10.37;;;;;;;7.58;87.32;92762.22;5046986;28;20271;-72
2024/01/05 08:08:21;;;;;;;14.13;11.00;;;;;;;7.57;87.61;92752.88;5067150;28;20232;-74
2024/01/05 08:10:47;;;;;;;19.87;18.60;;;;;;;7.79;85.94;92766.44;5067472;28;20178;-74
2024/01/05 08:13:12;;;;;;;11.57;10.80;;;;;;;7.80;85.87;92768.00;5063596;28;20214;-74
2024/01/05 08:15:38;;;;;;;12.27;10.63;;;;;;;7.73;86.26;92767.47;5060254;28;20241;-73
2024/01/05 08:18:03;;;;;;;10.87;10.17;;;;;;;7.70;86.06;92767.97;5070266;28;20273;-73
2024/01/05 08:20:29;;;;;;;9.80;9.07;;;;;;;7.84;86.48;92765.66;5067557;28;20244;-73
2024/01/05 08:22:54;;;;;;;10.30;9.70;;;;;;;7.78;84.70;92764.84;5065834;28;20209;-73
2024/01/05 08:25:19;;;;;;;11.33;10.20;;;;;;;7.79;85.47;92776.81;5070587;28;20911;-73
2024/01/05 08:27:45;;;;;;;11.03;10.20;;;;;;;7.99;85.01;92773.47;5054050;28;20222;-73
2024/01/05 08:30:13;;;;;;;10.83;10.10;;;;;;;8.04;84.77;92779.47;5042834;28;20206;-73
2024/01/05 08:32:41;;;;;;;11.90;11.10;;;;;;;7.93;85.05;92783.09;5048582;28;20240;-73
2024/01/05 08:35:07;;;;;;;10.93;10.17;;;;;;;7.90;85.32;92775.81;5050498;28;20225;-72
2024/01/05 08:37:34;;;;;;;10.60;9.93;;;;;;;8.29;83.50;92790.94;5038469;28;20230;-72
2024/01/05 08:39:59;;;;;;;10.27;9.77;;;;;;;8.22;83.54;92791.16;5045870;28;20285;-72
2024/01/05 08:42:25;;;;;;;11.93;10.90;;;;;;;7.86;85.10;92792.94;5050830;28;20217;-73
2024/01/05 08:44:50;;;;;;;10.60;9.90;;;;;;;8.20;84.53;92788.81;5066250;28;20233;-73
2024/01/05 08:47:16;;;;;;;10.87;9.83;;;;;;;8.32;84.32;92778.22;5057646;28;20289;-72
2024/01/05 08:49:42;;;;;;;10.53;9.93;;;;;;;7.85;85.25;92783.59;5063063;28;20182;-72
2024/01/05 08:52:07;;;;;;;11.63;10.23;;;;;;;8.00;84.05;92773.22;5060686;28;20221;-73
2024/01/05 08:54:33;;;;;;;10.07;9.30;;;;;;;8.48;81.74;92761.56;5069960;28;20272;-72
2024/01/05 08:56:58;;;;;;;10.23;9.43;;;;;;;8.62;82.61;92775.59;5068671;28;20248;-73
2024/01/05 08:59:24;;;;;;;10.63;9.93;;;;;;;8.60;81.20;92776.88;5058206;28;20192;-72
2024/01/05 09:01:49;;;;;;;11.23;10.33;;;;;;;8.83;81.13;92771.91;5068873;28;20229;-73
2024/01/05 09:04:15;;;;;;;10.17;9.60;;;;;;;8.90;79.74;92766.44;5070906;28;20185;-73
2024/01/05 09:06:40;;;;;;;10.93;10.13;;;;;;;9.26;76.80;92765.31;5068796;28;20254;-73
2024/01/05 09:09:05;;;;;;;11.13;10.27;;;;;;;9.25;76.53;92769.72;5069438;28;20185;-73
2024/01/05 09:11:31;;;;;;;11.53;10.50;;;;;;;9.49;75.64;92770.66;5064627;28;20199;-72
2024/01/05 09:13:56;;;;;;;10.07;9.53;;;;;;;9.51;75.68;92765.97;5070149;28;20189;-72
2024/01/05 09:16:22;;;;;;;10.13;9.50;;;;;;;9.61;75.75;92752.09;5061745;28;20289;-74
2024/01/05 09:18:49;;;;;;;11.27;10.57;;;;;;;9.77;74.70;92777.06;5050149;28;20210;-73
2024/01/05 09:21:14;;;;;;;10.23;9.63;;;;;;;9.85;74.89;92775.69;5050648;28;20225;-73
2024/01/05 09:23:41;;;;;;;10.03;9.43;;;;;;;9.93;74.62;92767.31;5043980;28;20236;-73
2024/01/05 09:26:13;;;;;;;10.80;9.73;;;;;;;9.85;74.47;92762.66;5046248;28;20179;-72
2024/01/05 09:28:38;;;;;;;10.17;9.50;;;;;;;9.93;74.28;92765.47;5046047;28;20217;-72
2024/01/05 09:31:04;;;;;;;10.10;9.17;;;;;;;9.82;74.65;92777.03;5041026;28;20233;-73
2024/01/05 09:33:29;;;;;;;11.77;10.73;;;;;;;9.71;75.49;92771.06;5049611;28;20249;-73
2024/01/05 09:35:55;;;;;;;10.93;10.07;;;;;;;9.89;77.01;92774.91;5049150;28;20210;-73
2024/01/05 09:38:20;;;;;;;10.90;9.63;;;;;;;9.79;77.26;92777.53;5043213;28;20214;-72
2024/01/05 09:40:46;;;;;;;11.03;10.33;;;;;;;9.46;77.71;92741.75;5051023;28;20200;-72
2024/01/05 09:43:12;;;;;;;11.03;10.43;;;;;;;9.74;77.95;92782.81;5042681;28;20249;-72
2024/01/05 09:45:38;;;;;;;12.30;11.40;;;;;;;9.38;80.43;92784.78;5042796;28;20221;-72
2024/01/05 09:48:05;;;;;;;16.77;10.90;;;;;;;9.14;81.65;92764.78;5055810;28;20232;-72
2024/01/05 09:50:31;;;;;;;12.57;11.47;;;;;;;9.22;82.11;92774.66;5067841;28;20205;-73
2024/01/05 09:52:57;;;;;;;12.63;11.73;;;;;;;9.42;80.55;92785.81;5067632;28;20229;-73
2024/01/05 09:55:23;;;;;;;13.33;11.83;;;;;;;9.50;80.52;92780.03;5067891;28;20205;-72
2024/01/05 09:57:50;;;;;;;13.93;11.03;;;;;;;9.43;80.89;92770.97;5063766;28;20806;-72
2024/01/05 10:00:17;;;;;;;12.33;11.20;;;;;;;9.66;80.84;92780.75;5066022;28;20200;-72
2024/01/05 10:02:58;;;;;;;12.90;11.90;;;;;;;9.71;79.46;92767.72;5067417;28;20223;-73
2024/01/05 10:05:25;;;;;;;13.43;12.13;;;;;;;9.80;79.60;92776.50;5065403;28;20691;-71
2024/01/05 10:07:50;;;;;;;12.90;11.90;;;;;;;9.72;79.88;92769.25;5059837;28;20221;-73
2024/01/05 10:10:15;;;;;;;14.23;12.30;;;;;;;9.69;80.57;92764.59;5068294;28;20190;-71
2024/01/05 10:12:41;;;;;;;15.33;13.83;;;;;;;9.84;79.57;92764.50;5063521;28;20297;-72
2024/01/05 10:15:07;;;;;;;17.50;15.80;;;;;;;9.92;80.01;92758.72;5065475;28;20211;-71
2024/01/05 10:17:33;;;;;;;17.40;14.07;;;;;;;9.93;79.51;92752.44;5064708;28;21050;-72
2024/01/05 10:20:16;;;;;;;14.53;13.03;;;;;;;9.87;78.63;92765.78;5061779;28;20193;-71
2024/01/05 10:22:46;;;;;;;16.33;14.37;;;;;;;9.90;79.39;92762.66;5065171;28;20221;-72
2024/01/05 10:25:21;;;;;;;15.13;13.80;;;;;;;9.96;78.04;92738.84;5065222;28;20182;-72
2024/01/05 10:27:49;;;;;;;16.03;13.30;;;;;;;9.98;77.96;92752.41;5061876;28;20258;-74
2024/01/05 10:30:29;;;;;;;12.37;11.47;;;;;;;10.02;76.23;92753.44;5064270;28;20177;-73
2024/01/05 10:33:07;;;;;;;11.73;10.87;;;;;;;9.98;75.65;92717.75;5057391;28;20242;-73
2024/01/05 10:35:35;;;;;;;12.83;11.60;;;;;;;10.23;76.31;92733.22;5064969;28;20228;-73
2024/01/05 10:38:11;;;;;;;12.10;10.83;;;;;;;10.14;74.10;92713.97;5068872;28;20225;-74
2024/01/05 10:40:37;;;;;;;11.67;10.53;;;;;;;10.41;73.60;92737.78;5058404;28;20170;-73
2024/01/05 10:43:09;;;;;;;9.70;8.87;;;;;;;10.45;75.25;92744.00;5049962;28;20238;-73
2024/01/05 10:45:36;;;;;;;10.67;9.67;;;;;;;10.54;73.81;92735.31;5045851;28;20190;-72
2024/01/05 10:48:16;;;;;;;10.73;10.00;;;;;;;10.68;72.12;92720.56;5056315;28;20280;-71
2024/01/05 10:50:44;;;;;;;11.20;10.50;;;;;;;10.59;71.49;92727.44;5064788;28;20193;-71
2024/01/05 10:53:09;;;;;;;10.77;9.70;;;;;;;10.71;71.84;92727.84;5053052;28;20226;-71
2024/01/05 10:55:37;;;;;;;10.23;9.70;;;;;;;10.98;69.75;92728.09;5045278;28;20222;-71
2024/01/05 10:58:05;;;;;;;10.27;9.73;;;;;;;10.86;68.68;92726.91;5077155;28;20206;-71
2024/01/05 11:00:30;;;;;;;10.37;9.53;;;;;;;10.89;68.08;92726.38;5045693;28;20227;-72
2024/01/05 11:03:08;;;;;;;11.87;10.70;;;;;;;11.00;68.57;92731.19;5047521;28;20229;-74
2024/01/05 11:05:34;;;;;;;11.03;10.27;;;;;;;11.01;68.49;92724.13;5048150;28;20190;-73
2024/01/05 11:08:02;;;;;;;13.07;11.77;;;;;;;10.85;69.17;92712.28;5060775;28;20952;-72
2024/01/05 11:10:50;;;;;;;11.43;10.67;;;;;;;10.82;68.60;92731.91;5065682;28;20186;-73
2024/01/05 11:13:34;;;;;;;10.63;9.93;;;;;;;10.88;69.12;92709.16;5041159;28;20225;-73
2024/01/05 11:16:21;;;;;;;11.17;10.47;;;;;;;11.01;68.64;92714.47;5039088;28;20205;-73
2024/01/05 11:19:23;;;;;;;11.07;10.43;;;;;;;11.20;68.77;92710.09;5063696;28;20217;-71
2024/01/05 11:21:57;;;;;;;11.63;10.73;;;;;;;11.35;68.30;92707.28;5059887;28;20221;-73
2024/01/05 11:24:23;;;;;;;12.03;11.17;;;;;;;11.54;67.09;92709.13;5065739;28;20185;-73